createdAt,value
2022-08-16T00:00:46.166Z,99017.59
2022-08-16T00:04:47.773Z,99012.13
2022-08-16T00:08:52.753Z,99019.19
2022-08-16T00:12:55.176Z,99018.69
2022-08-16T00:17:05.388Z,99016.56
2022-08-16T00:21:18.199Z,99024.47
2022-08-16T00:26:33.182Z,99030.72
2022-08-16T00:29:43.590Z,99034.47
2022-08-16T00:33:50.159Z,99041.03
2022-08-16T00:37:58.007Z,99036.09
2022-08-16T00:42:01.107Z,99042.03
2022-08-16T00:46:32.960Z,99039.06
2022-08-16T00:50:37.603Z,99036.28
2022-08-16T00:54:41.732Z,99034.97
2022-08-16T00:58:46.481Z,99026.91
2022-08-16T01:02:48.956Z,99023.63
2022-08-16T01:07:02.066Z,99028.72
2022-08-16T01:11:06.569Z,99039.38
2022-08-16T01:15:09.032Z,99031.66
2022-08-16T01:19:40.947Z,99030.66
2022-08-16T01:24:02.254Z,99033.59
2022-08-16T01:28:08.291Z,99035.41
2022-08-16T01:32:10.347Z,99042.47
2022-08-16T01:36:13.077Z,99035.56
2022-08-16T01:40:18.547Z,99032.25
2022-08-16T01:44:20.424Z,99039.00
2022-08-16T01:48:26.010Z,99030.97
2022-08-16T01:52:30.543Z,99028.50
2022-08-16T01:56:45.836Z,99034.38
2022-08-16T02:00:50.930Z,99034.72
2022-08-16T02:04:54.763Z,99034.22
2022-08-16T02:08:59.424Z,99036.53
2022-08-16T02:13:01.402Z,99045.56
2022-08-16T02:17:08.260Z,99037.81
2022-08-16T02:21:12.027Z,99040.91
2022-08-16T02:25:17.898Z,99033.50
2022-08-16T02:29:20.901Z,99032.22
2022-08-16T02:33:24.686Z,99034.28
2022-08-16T02:37:52.521Z,99025.75
2022-08-16T02:41:56.278Z,99022.75
2022-08-16T02:45:59.987Z,99025.06
2022-08-16T02:50:54.919Z,99027.66
2022-08-16T02:54:27.267Z,99021.59
2022-08-16T02:58:29.523Z,99019.09
2022-08-16T03:02:32.479Z,99020.56
2022-08-16T03:06:42.788Z,99022.03
2022-08-16T03:10:59.161Z,99029.91
2022-08-16T03:15:01.169Z,99026.09
2022-08-16T03:19:04.918Z,99030.69
2022-08-16T03:23:08.998Z,99026.56
2022-08-16T03:27:10.862Z,99032.78
2022-08-16T03:31:13.038Z,99034.25
2022-08-16T03:35:19.062Z,99034.91
2022-08-16T03:39:21.082Z,99034.41
2022-08-16T03:43:24.395Z,99034.53
2022-08-16T03:47:50.845Z,99037.44
2022-08-16T03:52:00.223Z,99035.94
2022-08-16T03:56:07.997Z,99023.97
2022-08-16T04:00:36.314Z,99022.63
2022-08-16T04:04:49.145Z,99029.38
2022-08-16T04:08:52.759Z,99031.00
2022-08-16T04:13:00.585Z,99028.22
2022-08-16T04:17:05.657Z,99034.13
2022-08-16T04:21:11.458Z,99036.69
2022-08-16T04:25:13.396Z,99042.28
2022-08-16T04:29:21.736Z,99042.28
2022-08-16T04:33:27.678Z,99048.38
2022-08-16T04:37:32.573Z,99044.44
2022-08-16T04:41:57.079Z,99039.88
2022-08-16T04:46:03.197Z,99046.78
2022-08-16T04:50:14.757Z,99037.78
2022-08-16T04:54:32.502Z,99039.94
2022-08-16T04:58:45.192Z,99049.63
2022-08-16T05:02:56.410Z,99052.59
2022-08-16T05:07:00.993Z,99065.09
2022-08-16T05:11:22.959Z,99066.91
2022-08-16T05:15:25.880Z,99065.44
2022-08-16T05:19:27.637Z,99068.09
2022-08-16T05:23:55.952Z,99073.03
2022-08-16T05:28:03.792Z,99075.03
2022-08-16T05:32:32.030Z,99080.72
2022-08-16T05:36:34.140Z,99083.66
2022-08-16T05:40:39.372Z,99087.81
2022-08-16T05:44:41.200Z,99094.56
2022-08-16T05:48:54.642Z,99092.63
2022-08-16T05:52:57.203Z,99106.41
2022-08-16T05:57:00.201Z,99105.44
2022-08-16T06:01:04.073Z,99103.63
2022-08-16T06:05:10.784Z,99097.75
2022-08-16T06:09:13.615Z,99108.44
2022-08-16T06:13:17.014Z,99106.31
2022-08-16T06:17:21.621Z,99114.38
2022-08-16T06:21:25.001Z,99107.34
2022-08-16T06:25:35.869Z,99112.78
2022-08-16T06:29:39.143Z,99115.56
2022-08-16T06:33:42.417Z,99111.44
2022-08-16T06:37:51.290Z,99116.72
2022-08-16T06:41:54.814Z,99116.03
2022-08-16T06:46:37.556Z,99120.31
2022-08-16T06:50:47.911Z,99119.25
2022-08-16T06:54:50.394Z,99124.16
2022-08-16T06:58:54.335Z,99125.28
2022-08-16T07:03:00.303Z,99130.81
2022-08-16T07:07:05.977Z,99137.16
2022-08-16T07:11:09.195Z,99134.59
2022-08-16T07:15:17.125Z,99138.91
2022-08-16T07:19:21.117Z,99138.25
2022-08-16T07:23:34.960Z,99127.25
2022-08-16T07:27:41.848Z,99128.19
2022-08-16T07:31:46.814Z,99131.03
2022-08-16T07:35:52.712Z,99134.28
2022-08-16T07:39:55.127Z,99129.84
2022-08-16T07:43:57.563Z,99137.47
2022-08-16T07:48:11.746Z,99139.38
2022-08-16T07:52:18.951Z,99135.75
2022-08-16T07:56:23.504Z,99139.75
2022-08-16T08:00:36.703Z,99141.41
2022-08-16T08:04:40.493Z,99140.91
2022-08-16T08:08:50.145Z,99145.22
2022-08-16T08:12:55.197Z,99152.66
2022-08-16T08:17:01.932Z,99148.22
2022-08-16T08:21:09.462Z,99154.69
2022-08-16T08:25:13.042Z,99147.53
2022-08-16T08:29:23.106Z,99139.44
2022-08-16T08:33:41.563Z,99152.59
2022-08-16T08:37:55.259Z,99150.78
2022-08-16T08:42:03.564Z,99154.94
2022-08-16T08:46:06.335Z,99150.94
2022-08-16T08:50:31.551Z,99158.91
2022-08-16T08:54:34.935Z,99156.50
2022-08-16T08:58:40.441Z,99155.06
2022-08-16T09:03:17.309Z,99165.56
2022-08-16T09:07:23.725Z,99162.56
2022-08-16T09:11:40.806Z,99158.31
2022-08-16T09:15:44.757Z,99164.78
2022-08-16T09:19:47.173Z,99162.25
2022-08-16T09:23:50.387Z,99159.97
2022-08-16T09:27:58.100Z,99168.28
2022-08-16T09:32:07.619Z,99168.13
2022-08-16T09:36:12.230Z,99169.19
2022-08-16T09:40:42.505Z,99167.63
2022-08-16T09:45:12.702Z,99158.06
2022-08-16T09:49:06.199Z,99157.75
2022-08-16T09:53:23.031Z,99169.34
2022-08-16T09:57:24.626Z,99155.38
2022-08-16T10:01:38.549Z,99162.94
2022-08-16T10:05:46.267Z,99156.25
2022-08-16T10:09:55.562Z,99155.41
2022-08-16T10:13:57.984Z,99154.81
2022-08-16T10:18:02.482Z,99165.06
2022-08-16T10:22:23.019Z,99155.28
2022-08-16T10:27:16.245Z,99155.91
2022-08-16T10:30:47.360Z,99151.38
2022-08-16T10:34:59.071Z,99159.25
2022-08-16T10:39:00.744Z,99142.25
2022-08-16T10:43:02.489Z,99150.69
2022-08-16T10:47:05.936Z,99151.25
2022-08-16T10:51:09.309Z,99146.13
2022-08-16T10:59:44.916Z,99151.75
2022-08-16T11:03:57.330Z,99153.28
2022-08-16T11:07:59.398Z,99151.31
2022-08-16T11:12:14.405Z,99139.19
2022-08-16T11:20:42.000Z,99149.06
2022-08-16T11:24:44.939Z,99147.91
2022-08-16T11:33:10.856Z,99151.69
2022-08-16T11:37:27.276Z,99150.06
2022-08-16T11:41:35.829Z,99154.94
2022-08-16T11:45:38.497Z,99150.75
2022-08-16T11:49:40.222Z,99155.22
2022-08-16T11:53:41.907Z,99155.25
2022-08-16T11:57:43.639Z,99148.31
2022-08-16T12:01:58.911Z,99145.53
2022-08-16T12:06:08.125Z,99141.03
2022-08-16T12:10:16.251Z,99136.19
2022-08-16T12:14:17.930Z,99142.53
2022-08-16T12:18:20.925Z,99132.63
2022-08-16T12:22:24.884Z,99139.44
2022-08-16T12:26:26.541Z,99140.69
2022-08-16T12:30:33.695Z,99127.34
2022-08-16T12:34:50.480Z,99131.38
2022-08-16T12:38:55.273Z,99131.53
2022-08-16T12:43:01.025Z,99127.56
2022-08-16T12:47:22.766Z,99120.09
2022-08-16T12:51:57.562Z,99119.03
2022-08-16T12:55:53.975Z,99111.25
2022-08-16T12:59:55.551Z,99111.44
2022-08-16T13:04:19.451Z,99108.63
2022-08-16T13:08:21.238Z,99107.72
2022-08-16T13:12:25.210Z,99113.00
2022-08-16T13:16:27.327Z,99116.88
2022-08-16T13:20:31.727Z,99100.06
2022-08-16T13:24:33.834Z,99103.13
2022-08-16T13:28:37.076Z,99095.72
2022-08-16T13:32:40.539Z,99096.03
2022-08-16T13:36:49.560Z,99091.44
2022-08-16T13:40:57.175Z,99087.19
2022-08-16T13:44:59.145Z,99094.34
2022-08-16T13:49:01.172Z,99091.22
2022-08-16T13:53:04.017Z,99090.41
2022-08-16T13:57:06.693Z,99089.53
2022-08-16T14:01:13.647Z,99086.59
2022-08-16T14:05:21.885Z,99083.34
2022-08-16T14:09:28.143Z,99077.81
2022-08-16T14:13:30.115Z,99065.28
2022-08-16T14:18:14.992Z,99078.34
2022-08-16T14:22:14.320Z,99068.06
2022-08-16T14:26:21.304Z,99076.66
2022-08-16T14:30:23.846Z,99062.94
2022-08-16T14:34:29.125Z,99064.84
2022-08-16T14:38:37.592Z,99063.34
2022-08-16T14:42:44.039Z,99046.25
2022-08-16T14:46:45.857Z,99050.28
2022-08-16T14:50:47.465Z,99042.97
2022-08-16T14:54:53.382Z,99046.56
2022-08-16T14:58:55.695Z,99037.06
2022-08-16T15:02:58.560Z,99044.03
2022-08-16T15:07:00.166Z,99040.69
2022-08-16T15:11:01.733Z,99038.50
2022-08-16T15:15:12.570Z,99033.41
2022-08-16T15:19:18.921Z,99042.56
2022-08-16T15:23:24.103Z,99041.38
2022-08-16T15:27:35.580Z,99036.53
2022-08-16T15:31:37.656Z,99041.50
2022-08-16T15:35:40.115Z,99047.59
2022-08-16T15:39:42.167Z,99045.97
2022-08-16T15:43:50.174Z,99051.63
2022-08-16T15:48:08.797Z,99050.03
2022-08-16T15:52:20.560Z,99046.72
2022-08-16T15:56:23.581Z,99049.97
2022-08-16T16:00:30.469Z,99051.19
2022-08-16T16:04:34.220Z,99057.31
2022-08-16T16:08:39.035Z,99054.47
2022-08-16T16:12:53.086Z,99058.50
2022-08-16T16:16:56.492Z,99046.75
2022-08-16T16:21:01.861Z,99045.91
2022-08-16T16:25:04.192Z,99045.88
2022-08-16T16:29:14.360Z,99036.09
2022-08-16T16:33:20.819Z,99043.41
2022-08-16T16:37:23.473Z,99036.03
2022-08-16T16:41:28.236Z,99044.53
2022-08-16T16:45:33.556Z,99031.88
2022-08-16T16:49:41.606Z,99041.19
2022-08-16T16:53:56.244Z,99038.34
2022-08-16T16:58:17.968Z,99034.63
2022-08-16T17:02:41.507Z,99037.47
2022-08-16T17:06:53.685Z,99030.16
2022-08-16T17:10:59.803Z,99029.34
2022-08-16T17:15:01.956Z,99030.56
2022-08-16T17:19:17.468Z,99033.41
2022-08-16T17:23:57.647Z,99027.28
2022-08-16T17:27:50.861Z,99033.25
2022-08-16T17:31:53.195Z,99032.44
2022-08-16T17:35:56.087Z,99040.09
2022-08-16T17:40:04.198Z,99038.00
2022-08-16T17:44:12.506Z,99029.44
2022-08-16T17:48:14.296Z,99040.75
2022-08-16T17:52:17.426Z,99040.25
2022-08-16T17:56:21.151Z,99045.00
2022-08-16T18:00:24.017Z,99039.69
2022-08-16T18:04:48.914Z,99037.13
2022-08-16T18:08:50.084Z,99043.84
2022-08-16T18:12:55.967Z,99039.56
2022-08-16T18:16:57.629Z,99048.22
2022-08-16T18:21:18.027Z,99039.88
2022-08-16T18:25:20.864Z,99045.94
2022-08-16T18:29:22.795Z,99051.25
2022-08-16T18:33:26.394Z,99061.00
2022-08-16T18:37:27.968Z,99057.72
2022-08-16T18:41:30.541Z,99058.91
2022-08-16T18:45:35.813Z,99059.69
2022-08-16T18:49:38.472Z,99057.19
2022-08-16T18:53:40.029Z,99059.59
2022-08-16T18:57:41.883Z,99061.22
2022-08-16T19:01:43.805Z,99066.06
2022-08-16T19:05:49.493Z,99067.31
2022-08-16T19:09:51.044Z,99076.19
2022-08-16T19:13:52.704Z,99069.72
2022-08-16T19:17:56.129Z,99069.72
2022-08-16T19:21:58.303Z,99082.28
2022-08-16T19:26:06.638Z,99084.00
2022-08-16T19:30:08.930Z,99084.50
2022-08-16T19:34:11.197Z,99092.31
2022-08-16T19:38:13.387Z,99088.50
2022-08-16T19:42:16.511Z,99094.63
2022-08-16T19:46:18.149Z,99098.53
2022-08-16T19:50:23.164Z,99105.22
2022-08-16T19:54:40.265Z,99104.31
2022-08-16T19:59:02.040Z,99107.84
2022-08-16T20:03:11.117Z,99106.09
2022-08-16T20:07:13.556Z,99116.44
2022-08-16T20:11:15.306Z,99103.09
2022-08-16T20:15:22.343Z,99111.78
2022-08-16T20:19:37.027Z,99114.47
2022-08-16T20:23:41.819Z,99121.63
2022-08-16T20:27:43.733Z,99127.16
2022-08-16T20:31:45.533Z,99125.06
2022-08-16T20:35:50.101Z,99120.97
2022-08-16T20:39:53.532Z,99127.31
2022-08-16T20:44:15.211Z,99131.31
2022-08-16T20:48:17.079Z,99129.19
2022-08-16T20:52:20.111Z,99126.63
2022-08-16T20:56:21.829Z,99130.97
2022-08-16T21:00:23.482Z,99135.28
2022-08-16T21:04:27.768Z,99136.00
2022-08-16T21:08:53.142Z,99135.16
2022-08-16T21:12:55.408Z,99146.31
2022-08-16T21:16:57.016Z,99144.19
2022-08-16T21:20:58.634Z,99144.44
2022-08-16T21:25:03.675Z,99149.13
2022-08-16T21:29:11.165Z,99154.28
2022-08-16T21:33:18.973Z,99150.88
2022-08-16T21:37:20.624Z,99142.34
2022-08-16T21:41:22.229Z,99147.38
2022-08-16T21:45:23.835Z,99150.88
2022-08-16T21:49:25.572Z,99143.16
2022-08-16T21:53:27.536Z,99139.53
2022-08-16T21:57:35.486Z,99146.66
2022-08-16T22:01:44.491Z,99147.38
2022-08-16T22:06:00.139Z,99147.25
2022-08-16T22:11:04.857Z,99145.97
2022-08-16T22:14:32.060Z,99140.69
2022-08-16T22:18:33.658Z,99142.56
2022-08-16T22:22:36.648Z,99132.84
2022-08-16T22:26:43.047Z,99137.28
2022-08-16T22:30:45.611Z,99141.63
2022-08-16T22:34:47.171Z,99139.16
2022-08-16T22:38:53.804Z,99145.97
2022-08-16T22:42:58.514Z,99143.47
2022-08-16T22:47:00.147Z,99138.94
2022-08-16T22:51:01.699Z,99133.66
2022-08-16T22:55:03.741Z,99144.88
2022-08-16T22:59:05.349Z,99154.13
2022-08-16T23:03:20.484Z,99157.28
2022-08-16T23:07:22.148Z,99145.91
2022-08-16T23:11:25.033Z,99150.69
2022-08-16T23:15:29.057Z,99142.94
2022-08-16T23:19:34.102Z,99162.16
2022-08-16T23:23:36.839Z,99147.63
2022-08-16T23:27:38.768Z,99146.00
2022-08-16T23:31:40.346Z,99139.22
2022-08-16T23:35:47.683Z,99131.47
2022-08-16T23:39:49.300Z,99133.22
2022-08-16T23:43:56.199Z,99126.28
2022-08-16T23:47:57.828Z,99114.13
2022-08-16T23:52:07.639Z,99113.19
2022-08-16T23:56:18.484Z,99118.69
